createdAt,value
2018-08-03T00:01:46.138Z,24.45
2018-08-03T00:03:48.381Z,25.88
2018-08-03T00:05:50.618Z,25.80
2018-08-03T00:07:52.840Z,24.75
2018-08-03T00:09:55.071Z,24.12
2018-08-03T00:11:57.304Z,23.52
2018-08-03T00:13:59.620Z,24.00
2018-08-03T00:16:01.936Z,22.60
2018-08-03T00:18:04.148Z,21.02
2018-08-03T00:20:06.376Z,20.10
2018-08-03T00:22:08.657Z,20.30
2018-08-03T00:24:10.880Z,19.40
2018-08-03T00:26:13.105Z,18.55
2018-08-03T00:28:15.356Z,18.98
2018-08-03T00:30:17.616Z,17.35
2018-08-03T00:32:19.856Z,17.42
2018-08-03T00:34:22.096Z,18.30
2018-08-03T00:36:24.358Z,16.23
2018-08-03T00:38:26.580Z,15.72
2018-08-03T00:40:28.805Z,15.30
2018-08-03T00:42:31.035Z,15.65
2018-08-03T00:44:33.272Z,15.95
2018-08-03T00:46:35.539Z,14.78
2018-08-03T00:48:37.763Z,14.30
2018-08-03T00:50:39.995Z,13.62
2018-08-03T00:52:42.267Z,13.62
2018-08-03T00:54:44.545Z,13.40
2018-08-03T00:56:46.817Z,14.15
2018-08-03T00:58:49.065Z,13.20
2018-08-03T01:00:51.301Z,12.68
2018-08-03T01:02:53.547Z,13.55
2018-08-03T01:04:55.864Z,12.55
2018-08-03T01:06:58.082Z,13.32
2018-08-03T01:09:00.329Z,12.00
2018-08-03T01:11:02.570Z,13.22
2018-08-03T01:13:04.815Z,12.07
2018-08-03T01:15:07.037Z,10.35
2018-08-03T01:17:09.251Z,11.50
2018-08-03T01:19:11.503Z,11.12
2018-08-03T01:21:13.741Z,11.43
2018-08-03T01:23:15.993Z,11.33
2018-08-03T01:25:18.221Z,11.38
2018-08-03T01:27:20.485Z,10.88
2018-08-03T01:29:22.725Z,10.65
2018-08-03T01:31:24.941Z,10.08
2018-08-03T01:33:27.191Z,10.90
2018-08-03T01:35:29.417Z,10.35
2018-08-03T01:37:31.641Z,11.33
2018-08-03T01:39:33.907Z,11.10
2018-08-03T01:41:36.177Z,9.60
2018-08-03T01:43:38.417Z,9.00
2018-08-03T01:45:40.627Z,9.75
2018-08-03T01:47:42.979Z,10.45
2018-08-03T01:49:45.195Z,10.30
2018-08-03T01:51:47.429Z,9.70
2018-08-03T01:53:49.677Z,10.18
2018-08-03T01:55:51.913Z,10.00
2018-08-03T01:57:54.151Z,9.95
2018-08-03T01:59:56.417Z,9.68
2018-08-03T02:01:58.630Z,10.00
2018-08-03T02:04:00.886Z,9.35
2018-08-03T02:06:03.099Z,10.58
2018-08-03T02:08:05.318Z,9.50
2018-08-03T02:10:07.588Z,9.28
2018-08-03T02:12:09.799Z,9.98
2018-08-03T02:14:12.075Z,9.50
2018-08-03T02:16:14.281Z,9.50
2018-08-03T02:18:16.562Z,9.45
2018-08-03T02:20:18.796Z,9.23
2018-08-03T02:22:21.031Z,9.15
2018-08-03T02:24:23.277Z,9.93
2018-08-03T02:26:25.498Z,9.38
2018-08-03T02:28:27.706Z,9.15
2018-08-03T02:30:29.959Z,9.85
2018-08-03T02:32:32.179Z,9.23
2018-08-03T02:34:34.404Z,9.10
2018-08-03T02:36:36.663Z,9.58
2018-08-03T02:38:38.884Z,9.80
2018-08-03T02:40:41.106Z,9.30
2018-08-03T02:42:43.356Z,10.03
2018-08-03T02:44:45.575Z,9.25
2018-08-03T02:46:47.808Z,8.78
2018-08-03T02:48:50.032Z,9.75
2018-08-03T02:50:52.277Z,9.88
2018-08-03T02:52:54.491Z,9.98
2018-08-03T02:54:56.783Z,9.90
2018-08-03T02:56:59.036Z,9.05
2018-08-03T02:59:01.288Z,10.10
2018-08-03T03:01:03.532Z,9.53
2018-08-03T03:03:05.754Z,9.75
2018-08-03T03:05:08.002Z,9.65
2018-08-03T03:07:10.256Z,9.40
2018-08-03T03:09:12.495Z,8.80
2018-08-03T03:11:14.697Z,8.98
2018-08-03T03:13:16.976Z,9.13
2018-08-03T03:15:19.208Z,9.70
2018-08-03T03:17:21.429Z,9.55
2018-08-03T03:19:23.707Z,10.50
2018-08-03T03:21:25.957Z,10.10
2018-08-03T03:23:28.224Z,10.15
2018-08-03T03:25:30.458Z,9.00
2018-08-03T03:27:32.676Z,9.83
2018-08-03T03:29:34.930Z,10.60
2018-08-03T03:31:37.214Z,9.25
2018-08-03T03:33:39.467Z,9.30
2018-08-03T03:35:41.680Z,9.25
2018-08-03T03:37:43.938Z,10.28
2018-08-03T03:39:46.166Z,9.55
2018-08-03T03:41:48.417Z,10.03
2018-08-03T03:43:50.677Z,9.73
2018-08-03T03:45:52.918Z,9.95
2018-08-03T03:47:55.186Z,10.23
2018-08-03T03:49:57.400Z,9.48
2018-08-03T03:51:59.645Z,9.93
2018-08-03T03:54:01.908Z,10.45
2018-08-03T03:56:04.149Z,10.45
2018-08-03T03:58:06.414Z,10.40
2018-08-03T04:00:08.658Z,11.25
2018-08-03T04:02:10.888Z,10.70
2018-08-03T04:04:13.123Z,10.05
2018-08-03T04:06:15.407Z,9.50
2018-08-03T04:08:17.679Z,9.88
2018-08-03T04:10:19.959Z,10.72
2018-08-03T04:12:22.215Z,9.75
2018-08-03T04:14:24.443Z,10.48
2018-08-03T04:16:26.687Z,10.55
2018-08-03T04:18:28.941Z,11.38
2018-08-03T04:20:31.171Z,10.38
2018-08-03T04:22:33.413Z,10.80
2018-08-03T04:24:35.656Z,10.00
2018-08-03T04:26:37.892Z,10.32
2018-08-03T04:28:40.164Z,10.43
2018-08-03T04:30:42.398Z,10.85
2018-08-03T04:32:44.650Z,10.40
2018-08-03T04:34:46.889Z,10.43
2018-08-03T04:36:49.103Z,10.58
2018-08-03T04:38:51.396Z,10.58
2018-08-03T04:40:53.601Z,11.15
2018-08-03T04:42:55.837Z,11.40
2018-08-03T04:44:58.096Z,10.63
2018-08-03T04:47:00.357Z,10.98
2018-08-03T04:49:02.625Z,10.32
2018-08-03T04:51:04.869Z,11.05
2018-08-03T04:53:07.085Z,11.28
2018-08-03T04:55:09.344Z,11.83
2018-08-03T04:57:11.573Z,11.38
2018-08-03T04:59:13.805Z,11.70
2018-08-03T05:01:16.049Z,12.93
2018-08-03T05:03:18.272Z,12.75
2018-08-03T05:05:20.502Z,13.03
2018-08-03T05:07:22.767Z,12.13
2018-08-03T05:09:25.039Z,11.97
2018-08-03T05:11:27.273Z,11.30
2018-08-03T05:13:29.522Z,11.70
2018-08-03T05:15:31.733Z,11.60
2018-08-03T05:17:34.049Z,10.13
2018-08-03T05:19:36.261Z,10.93
2018-08-03T05:21:38.545Z,11.40
2018-08-03T05:23:40.797Z,11.90
2018-08-03T05:25:43.021Z,13.15
2018-08-03T05:27:45.275Z,12.13
2018-08-03T05:29:47.502Z,11.25
2018-08-03T05:31:49.747Z,12.20
2018-08-03T05:33:51.981Z,51.30
2018-08-03T05:35:54.257Z,163.47
2018-08-03T05:37:56.486Z,37.28
2018-08-03T05:39:58.726Z,56.48
2018-08-03T05:42:00.974Z,78.45
2018-08-03T05:44:03.241Z,93.87
2018-08-03T05:46:05.499Z,791.62
2018-08-03T05:48:07.735Z,125.02
2018-08-03T05:50:10.027Z,144.77
2018-08-03T05:52:12.257Z,130.97
2018-08-03T05:54:14.482Z,242.62
2018-08-03T05:56:16.763Z,151.93
2018-08-03T05:58:18.984Z,219.57
2018-08-03T06:00:21.262Z,175.42
2018-08-03T06:02:23.522Z,176.70
2018-08-03T06:04:25.757Z,205.37
2018-08-03T06:06:27.968Z,265.82
2018-08-03T06:08:30.262Z,270.67
2018-08-03T06:10:32.510Z,251.55
2018-08-03T06:12:34.757Z,252.40
2018-08-03T06:14:37.018Z,224.25
2018-08-03T06:16:39.274Z,158.95
2018-08-03T06:18:41.545Z,491.23
2018-08-03T06:20:43.794Z,85.40
2018-08-03T06:22:46.023Z,37.78
2018-08-03T06:24:48.274Z,27.42
2018-08-03T06:26:50.520Z,28.92
2018-08-03T06:28:52.754Z,18.73
2018-08-03T06:30:55.002Z,18.40
2018-08-03T06:32:57.247Z,333.40
2018-08-03T06:34:59.503Z,56.80
2018-08-03T06:37:01.772Z,31.20
2018-08-03T06:39:04.005Z,18.10
2018-08-03T06:41:06.229Z,14.58
2018-08-03T06:43:08.502Z,12.63
2018-08-03T06:45:10.757Z,14.45
2018-08-03T06:47:12.993Z,43.38
2018-08-03T06:49:15.223Z,82.08
2018-08-03T06:51:17.504Z,75.42
2018-08-03T06:53:19.756Z,44.88
2018-08-03T06:55:22.006Z,31.97
2018-08-03T06:57:24.273Z,23.67
2018-08-03T06:59:26.542Z,18.05
2018-08-03T07:01:28.768Z,40.50
2018-08-03T07:03:31.034Z,60.03
2018-08-03T07:05:33.351Z,43.05
2018-08-03T07:07:35.640Z,30.95
2018-08-03T07:09:37.898Z,19.70
2018-08-03T07:11:40.186Z,16.87
2018-08-03T07:13:42.421Z,14.58
2018-08-03T07:15:44.674Z,81.10
2018-08-03T07:17:46.925Z,123.13
2018-08-03T07:19:49.199Z,68.37
2018-08-03T07:21:51.420Z,46.70
2018-08-03T07:23:53.686Z,31.65
2018-08-03T07:25:55.967Z,33.95
2018-08-03T07:27:58.208Z,20.23
2018-08-03T07:30:00.478Z,18.07
2018-08-03T07:32:02.724Z,26.45
2018-08-03T07:34:04.979Z,25.45
2018-08-03T07:36:07.260Z,24.43
2018-08-03T07:38:09.500Z,33.60
2018-08-03T07:40:11.736Z,36.38
2018-08-03T07:42:13.988Z,33.65
2018-08-03T07:44:16.257Z,55.60
2018-08-03T07:46:18.481Z,37.70
2018-08-03T07:48:20.721Z,35.78
2018-08-03T07:50:22.986Z,25.40
2018-08-03T07:52:25.204Z,24.90
2018-08-03T07:54:27.480Z,23.30
2018-08-03T07:56:29.761Z,43.60
2018-08-03T07:58:31.994Z,80.57
2018-08-03T08:00:34.242Z,40.55
2018-08-03T08:02:36.499Z,34.73
2018-08-03T08:04:38.759Z,36.80
2018-08-03T08:06:41.025Z,42.50
2018-08-03T08:08:43.268Z,26.35
2018-08-03T08:10:45.515Z,22.62
2018-08-03T08:12:47.751Z,14.15
2018-08-03T08:14:49.991Z,24.10
2018-08-03T08:16:52.273Z,56.10
2018-08-03T08:18:54.483Z,142.55
2018-08-03T08:20:56.714Z,56.55
2018-08-03T08:22:58.973Z,81.30
2018-08-03T08:25:01.262Z,45.28
2018-08-03T08:27:03.487Z,75.10
2018-08-03T08:29:05.731Z,65.72
2018-08-03T08:31:08.018Z,31.23
2018-08-03T08:33:10.281Z,37.73
2018-08-03T08:35:12.521Z,23.60
2018-08-03T08:37:14.778Z,30.70
2018-08-03T08:39:17.041Z,24.65
2018-08-03T08:41:19.273Z,21.62
2018-08-03T08:43:21.529Z,39.03
2018-08-03T08:45:23.756Z,74.70
2018-08-03T08:47:26.029Z,158.70
2018-08-03T08:49:28.283Z,106.00
2018-08-03T08:51:30.521Z,107.12
2018-08-03T08:53:32.842Z,107.07
2018-08-03T08:55:35.038Z,89.70
2018-08-03T08:57:37.269Z,76.80
2018-08-03T08:59:39.590Z,49.25
2018-08-03T09:01:41.784Z,77.62
2018-08-03T09:03:44.004Z,54.00
2018-08-03T09:05:46.281Z,72.70
2018-08-03T09:07:48.522Z,83.12
2018-08-03T09:09:50.769Z,96.87
2018-08-03T09:11:53.002Z,109.03
2018-08-03T09:13:55.281Z,157.88
2018-08-03T09:15:57.515Z,125.25
2018-08-03T09:17:59.786Z,142.80
2018-08-03T09:20:02.068Z,133.07
2018-08-03T09:22:04.319Z,105.00
2018-08-03T09:24:06.561Z,159.35
2018-08-03T09:26:08.794Z,106.37
2018-08-03T09:28:11.056Z,129.78
2018-08-03T09:30:13.325Z,156.75
2018-08-03T09:32:15.568Z,138.92
2018-08-03T09:34:17.830Z,137.43
2018-08-03T09:36:20.065Z,130.90
2018-08-03T09:38:22.366Z,131.15
2018-08-03T09:40:24.591Z,164.75
2018-08-03T09:42:27.769Z,177.27
2018-08-03T09:44:30.028Z,194.45
2018-08-03T09:46:32.282Z,228.40
2018-08-03T09:48:34.541Z,218.00
2018-08-03T09:50:36.807Z,205.70
2018-08-03T09:52:39.067Z,213.10
2018-08-03T09:54:41.338Z,207.80
2018-08-03T09:56:43.583Z,210.20
2018-08-03T09:58:45.855Z,199.50
2018-08-03T10:00:48.115Z,201.60
2018-08-03T10:02:50.358Z,183.85
2018-08-03T10:04:52.593Z,190.15
2018-08-03T10:06:54.870Z,164.10
2018-08-03T10:08:57.145Z,155.72
2018-08-03T10:10:59.383Z,156.35
2018-08-03T10:13:01.613Z,131.45
2018-08-03T10:15:03.898Z,123.30
2018-08-03T10:17:06.154Z,121.57
2018-08-03T10:19:08.381Z,108.47
2018-08-03T10:21:10.636Z,117.05
2018-08-03T10:23:12.868Z,102.62
2018-08-03T10:25:15.156Z,96.57
2018-08-03T10:27:17.397Z,78.55
2018-08-03T10:29:19.628Z,79.17
2018-08-03T10:31:21.894Z,70.40
2018-08-03T10:33:24.159Z,102.10
2018-08-03T10:35:26.425Z,75.52
2018-08-03T10:37:28.673Z,53.17
2018-08-03T10:39:30.894Z,39.83
2018-08-03T10:41:33.187Z,47.78
2018-08-03T10:43:35.404Z,64.35
2018-08-03T10:45:37.673Z,116.85
2018-08-03T10:47:39.946Z,144.22
2018-08-03T10:49:42.180Z,154.97
2018-08-03T10:51:44.444Z,177.90
2018-08-03T10:53:46.718Z,216.48
2018-08-03T10:55:48.964Z,150.90
2018-08-03T10:57:51.206Z,138.22
2018-08-03T10:59:53.449Z,148.80
2018-08-03T11:01:55.702Z,163.55
2018-08-03T11:03:57.970Z,243.73
2018-08-03T11:06:00.240Z,179.40
2018-08-03T11:08:02.468Z,113.37
2018-08-03T11:10:04.716Z,105.52
2018-08-03T11:12:06.977Z,93.15
2018-08-03T11:14:09.212Z,70.00
2018-08-03T11:16:11.495Z,60.65
2018-08-03T11:18:13.764Z,59.95
2018-08-03T11:20:16.001Z,61.30
2018-08-03T11:22:18.233Z,61.40
2018-08-03T11:24:20.629Z,53.30
2018-08-03T11:26:22.800Z,66.07
2018-08-03T11:28:25.034Z,48.78
2018-08-03T11:30:27.268Z,90.95
2018-08-03T11:32:29.542Z,110.17
2018-08-03T11:34:31.751Z,95.70
2018-08-03T11:36:34.015Z,74.07
2018-08-03T11:38:36.326Z,66.33
2018-08-03T11:40:38.705Z,88.97
2018-08-03T11:42:40.978Z,94.07
2018-08-03T11:44:43.309Z,118.02
2018-08-03T11:46:45.606Z,106.58
2018-08-03T11:48:47.866Z,95.07
2018-08-03T11:50:50.137Z,79.37
2018-08-03T11:52:52.363Z,35.17
2018-08-03T11:54:54.609Z,45.65
2018-08-03T11:56:56.848Z,44.00
2018-08-03T11:58:59.078Z,40.73
2018-08-03T12:01:01.346Z,36.80
2018-08-03T12:03:03.599Z,71.35
2018-08-03T12:05:05.849Z,34.38
2018-08-03T12:07:08.112Z,35.00
2018-08-03T12:09:10.360Z,61.08
2018-08-03T12:11:12.591Z,92.08
2018-08-03T12:13:14.883Z,100.82
2018-08-03T12:15:17.106Z,60.40
2018-08-03T12:17:19.363Z,102.58
2018-08-03T12:19:21.616Z,74.37
2018-08-03T12:21:23.861Z,72.70
2018-08-03T12:23:26.146Z,98.05
2018-08-03T12:25:28.370Z,153.00
2018-08-03T12:27:30.603Z,166.05
2018-08-03T12:29:32.866Z,167.90
2018-08-03T12:31:35.139Z,159.25
2018-08-03T12:33:37.342Z,127.65
2018-08-03T12:35:39.568Z,111.90
2018-08-03T12:37:41.927Z,116.03
2018-08-03T12:39:44.196Z,125.97
2018-08-03T12:41:46.416Z,164.20
2018-08-03T12:43:48.688Z,189.40
2018-08-03T12:45:50.994Z,181.82
2018-08-03T12:47:53.181Z,158.50
2018-08-03T12:49:55.441Z,136.57
2018-08-03T12:51:57.675Z,136.30
2018-08-03T12:53:59.942Z,187.82
2018-08-03T12:56:02.185Z,132.67
2018-08-03T12:58:04.455Z,173.53
2018-08-03T13:00:06.703Z,174.20
2018-08-03T13:02:08.933Z,214.65
2018-08-03T13:04:11.214Z,178.70
2018-08-03T13:06:13.509Z,152.90
2018-08-03T13:08:15.913Z,167.47
2018-08-03T13:10:17.963Z,149.75
2018-08-03T13:12:20.185Z,198.45
2018-08-03T13:14:22.441Z,222.82
2018-08-03T13:16:24.716Z,231.87
2018-08-03T13:18:26.948Z,188.32
2018-08-03T13:20:29.177Z,181.43
2018-08-03T13:22:31.451Z,186.65
2018-08-03T13:24:33.676Z,169.87
2018-08-03T13:26:35.916Z,163.95
2018-08-03T13:28:38.171Z,159.52
2018-08-03T13:30:40.423Z,148.85
2018-08-03T13:32:42.661Z,137.15
2018-08-03T13:34:44.915Z,135.32
2018-08-03T13:36:47.141Z,187.53
2018-08-03T13:38:49.407Z,198.90
2018-08-03T13:40:51.673Z,171.90
2018-08-03T13:42:53.932Z,195.35
2018-08-03T13:44:56.194Z,160.20
2018-08-03T13:46:58.431Z,152.85
2018-08-03T13:49:00.727Z,159.82
2018-08-03T13:51:02.961Z,159.15
2018-08-03T13:53:05.223Z,147.20
2018-08-03T13:55:07.493Z,133.15
2018-08-03T13:57:09.729Z,135.52
2018-08-03T13:59:11.989Z,133.27
2018-08-03T14:01:14.240Z,140.68
2018-08-03T14:03:16.478Z,112.80
2018-08-03T14:05:18.749Z,125.38
2018-08-03T14:07:20.995Z,117.60
2018-08-03T14:09:23.209Z,115.10
2018-08-03T14:11:25.492Z,113.60
2018-08-03T14:13:27.695Z,98.62
2018-08-03T14:15:29.960Z,95.90
2018-08-03T14:17:32.207Z,88.37
2018-08-03T14:19:34.441Z,93.25
2018-08-03T14:21:36.666Z,111.92
2018-08-03T14:23:41.965Z,211.05
2018-08-03T14:25:44.241Z,229.97
2018-08-03T14:27:46.475Z,196.63
2018-08-03T14:29:48.715Z,166.35
2018-08-03T14:31:51.030Z,172.93
2018-08-03T14:33:53.230Z,273.87
2018-08-03T14:35:55.477Z,295.67
2018-08-03T14:37:57.725Z,226.05
2018-08-03T14:39:59.997Z,246.05
2018-08-03T14:42:02.245Z,233.17
2018-08-03T14:44:04.520Z,243.57
2018-08-03T14:46:06.783Z,209.47
2018-08-03T14:48:09.008Z,197.90
2018-08-03T14:50:11.297Z,205.95
2018-08-03T14:52:13.520Z,278.05
2018-08-03T14:54:15.792Z,305.98
2018-08-03T14:56:18.084Z,301.80
2018-08-03T14:58:20.360Z,290.77
2018-08-03T15:00:22.586Z,295.75
2018-08-03T15:02:24.836Z,318.30
2018-08-03T15:04:27.100Z,316.90
2018-08-03T15:06:29.341Z,290.68
2018-08-03T15:08:31.595Z,184.25
2018-08-03T15:10:33.868Z,138.62
2018-08-03T15:12:36.117Z,99.55
2018-08-03T15:14:38.338Z,204.18
2018-08-03T15:16:40.610Z,294.67
2018-08-03T15:18:42.863Z,229.82
2018-08-03T15:20:45.138Z,142.37
2018-08-03T15:22:47.360Z,113.72
2018-08-03T15:24:49.594Z,161.30
2018-08-03T15:26:51.869Z,175.18
2018-08-03T15:28:54.146Z,251.07
2018-08-03T15:30:56.341Z,202.30
2018-08-03T15:32:58.595Z,132.63
2018-08-03T15:35:00.832Z,122.70
2018-08-03T15:37:03.129Z,117.17
2018-08-03T15:39:05.376Z,120.13
2018-08-03T15:41:07.608Z,97.42
2018-08-03T15:43:09.856Z,105.92
2018-08-03T15:45:12.102Z,97.65
2018-08-03T15:47:14.409Z,87.95
2018-08-03T15:49:16.626Z,92.53
2018-08-03T15:51:18.846Z,81.28
2018-08-03T15:53:21.136Z,77.10
2018-08-03T15:55:23.388Z,76.53
2018-08-03T15:57:25.637Z,73.12
2018-08-03T15:59:27.881Z,241.40
2018-08-03T16:01:30.118Z,179.40
2018-08-03T16:03:32.372Z,230.22
2018-08-03T16:05:34.674Z,243.27
2018-08-03T16:07:36.905Z,249.40
2018-08-03T16:09:39.179Z,198.05
2018-08-03T16:11:41.438Z,168.47
2018-08-03T16:13:43.678Z,174.30
2018-08-03T16:15:45.940Z,450.30
2018-08-03T16:17:48.196Z,311.65
2018-08-03T16:19:50.463Z,209.37
2018-08-03T16:21:52.749Z,150.47
2018-08-03T16:23:55.009Z,107.32
2018-08-03T16:25:57.308Z,79.42
2018-08-03T16:27:59.551Z,60.25
2018-08-03T16:30:01.798Z,45.58
2018-08-03T16:32:04.031Z,40.55
2018-08-03T16:34:06.333Z,34.75
2018-08-03T16:36:08.564Z,28.98
2018-08-03T16:38:10.789Z,26.80
2018-08-03T16:40:13.019Z,30.05
2018-08-03T16:42:15.256Z,25.70
2018-08-03T16:44:17.494Z,21.30
2018-08-03T16:46:19.766Z,20.10
2018-08-03T16:48:21.989Z,21.33
2018-08-03T16:50:24.217Z,20.48
2018-08-03T16:52:26.505Z,20.60
2018-08-03T16:54:28.757Z,17.57
2018-08-03T16:56:31.000Z,17.75
2018-08-03T16:58:33.245Z,16.32
2018-08-03T17:00:35.512Z,15.45
2018-08-03T17:02:37.751Z,21.55
2018-08-03T17:04:40.010Z,73.70
2018-08-03T17:06:42.239Z,99.17
2018-08-03T17:08:44.489Z,53.78
2018-08-03T17:10:46.747Z,43.45
2018-08-03T17:12:48.979Z,39.05
2018-08-03T17:14:51.209Z,34.35
2018-08-03T17:16:53.445Z,31.82
2018-08-03T17:18:55.829Z,25.50
2018-08-03T17:20:58.055Z,21.60
2018-08-03T17:23:00.317Z,19.52
2018-08-03T17:25:02.557Z,15.98
2018-08-03T17:27:04.795Z,17.00
2018-08-03T17:29:07.023Z,16.12
2018-08-03T17:31:09.247Z,15.08
2018-08-03T17:33:11.521Z,14.07
2018-08-03T17:35:13.797Z,10.15
2018-08-03T17:37:16.023Z,10.55
2018-08-03T17:39:18.283Z,12.03
2018-08-03T17:41:20.497Z,11.60
2018-08-03T17:43:22.721Z,36.38
2018-08-03T17:45:24.981Z,20.48
2018-08-03T17:47:27.201Z,17.50
2018-08-03T17:49:29.487Z,15.13
2018-08-03T17:51:31.719Z,16.02
2018-08-03T17:53:33.949Z,18.27
2018-08-03T17:55:36.211Z,17.10
2018-08-03T17:57:38.493Z,17.02
2018-08-03T17:59:40.745Z,18.02
2018-08-03T18:01:43.003Z,13.80
2018-08-03T18:03:45.236Z,16.05
2018-08-03T18:05:47.499Z,15.32
2018-08-03T18:07:49.735Z,13.58
2018-08-03T18:09:51.958Z,11.85
2018-08-03T18:11:54.226Z,11.22
2018-08-03T18:13:56.446Z,10.58
2018-08-03T18:15:58.757Z,10.72
2018-08-03T18:18:00.957Z,11.33
2018-08-03T18:20:03.210Z,12.95
2018-08-03T18:22:05.471Z,22.15
2018-08-03T18:24:07.711Z,13.70
2018-08-03T18:26:09.988Z,6.70
2018-08-03T18:28:12.221Z,5.10
2018-08-03T18:30:14.443Z,5.55
2018-08-03T18:32:16.774Z,51.95
2018-08-03T18:34:18.990Z,61.45
2018-08-03T18:36:21.233Z,24.20
2018-08-03T18:38:23.446Z,22.15
2018-08-03T18:40:25.737Z,12.18
2018-08-03T18:42:27.952Z,9.78
2018-08-03T18:44:30.192Z,8.80
2018-08-03T18:46:32.410Z,10.23
2018-08-03T18:48:34.650Z,22.35
2018-08-03T18:50:36.920Z,32.60
2018-08-03T18:52:39.178Z,29.15
2018-08-03T18:54:41.440Z,11.35
2018-08-03T18:56:43.664Z,8.48
2018-08-03T18:58:45.887Z,37.25
2018-08-03T19:00:48.180Z,26.55
2018-08-03T19:02:50.404Z,29.70
2018-08-03T19:04:52.650Z,23.52
2018-08-03T19:06:55.001Z,13.20
2018-08-03T19:08:57.218Z,14.47
2018-08-03T19:10:59.482Z,9.63
2018-08-03T19:13:01.740Z,11.53
2018-08-03T19:15:03.982Z,7.90
2018-08-03T19:17:06.250Z,6.33
2018-08-03T19:19:08.446Z,5.08
2018-08-03T19:21:10.702Z,3.95
2018-08-03T19:23:12.941Z,4.22
2018-08-03T19:25:15.154Z,5.58
2018-08-03T19:27:17.382Z,5.03
2018-08-03T19:29:19.649Z,4.30
2018-08-03T19:31:21.880Z,4.78
2018-08-03T19:33:24.124Z,5.97
2018-08-03T19:35:26.368Z,6.47
2018-08-03T19:37:28.575Z,8.73
2018-08-03T19:39:30.800Z,19.05
2018-08-03T19:41:33.054Z,13.55
2018-08-03T19:43:35.318Z,10.23
2018-08-03T19:45:37.553Z,7.78
2018-08-03T19:47:39.757Z,11.73
2018-08-03T19:49:42.013Z,7.67
2018-08-03T19:51:44.258Z,6.33
2018-08-03T19:53:46.481Z,5.53
2018-08-03T19:55:48.737Z,5.47
2018-08-03T19:57:50.996Z,6.70
2018-08-03T19:59:53.226Z,7.08
2018-08-03T20:01:55.445Z,5.25
2018-08-03T20:03:57.673Z,5.40
2018-08-03T20:05:59.918Z,6.20
2018-08-03T20:08:02.151Z,5.17
2018-08-03T20:10:04.409Z,5.80
2018-08-03T20:12:06.643Z,6.83
2018-08-03T20:14:08.916Z,8.83
2018-08-03T20:16:11.141Z,7.80
2018-08-03T20:18:13.393Z,6.03
2018-08-03T20:20:15.597Z,6.30
2018-08-03T20:22:17.837Z,4.90
2018-08-03T20:24:20.045Z,4.92
2018-08-03T20:26:22.304Z,5.53
2018-08-03T20:28:24.527Z,6.35
2018-08-03T20:30:26.783Z,6.85
2018-08-03T20:32:29.004Z,6.97
2018-08-03T20:34:31.236Z,6.70
2018-08-03T20:36:33.487Z,7.78
2018-08-03T20:38:35.691Z,6.72
2018-08-03T20:40:37.953Z,6.08
2018-08-03T20:42:40.187Z,7.00
2018-08-03T20:44:42.454Z,7.15
2018-08-03T20:46:44.663Z,6.03
2018-08-03T20:48:46.915Z,5.67
2018-08-03T20:50:49.179Z,6.80
2018-08-03T20:52:51.396Z,5.58
2018-08-03T20:54:53.608Z,5.83
2018-08-03T20:56:55.855Z,9.08
2018-08-03T20:58:58.081Z,14.55
2018-08-03T21:01:00.347Z,8.30
2018-08-03T21:03:02.560Z,8.73
2018-08-03T21:05:04.825Z,9.25
2018-08-03T21:07:07.081Z,7.22
2018-08-03T21:09:09.402Z,6.62
2018-08-03T21:11:11.641Z,6.28
2018-08-03T21:13:13.849Z,7.15
2018-08-03T21:15:16.097Z,10.72
2018-08-03T21:17:18.331Z,6.37
2018-08-03T21:19:20.571Z,7.58
2018-08-03T21:21:22.817Z,7.47
2018-08-03T21:23:25.077Z,5.72
2018-08-03T21:25:27.364Z,4.90
2018-08-03T21:27:29.603Z,5.12
2018-08-03T21:29:31.823Z,5.08
2018-08-03T21:31:34.095Z,8.50
2018-08-03T21:33:36.319Z,6.47
2018-08-03T21:35:38.558Z,5.22
2018-08-03T21:37:40.815Z,4.85
2018-08-03T21:39:43.083Z,12.05
2018-08-03T21:41:45.317Z,11.35
2018-08-03T21:43:47.541Z,12.37
2018-08-03T21:45:49.792Z,11.57
2018-08-03T21:47:52.016Z,9.55
2018-08-03T21:49:54.262Z,8.68
2018-08-03T21:51:56.515Z,8.80
2018-08-03T21:53:58.731Z,7.17
2018-08-03T21:56:00.976Z,7.72
2018-08-03T21:58:03.219Z,6.90
2018-08-03T22:00:05.441Z,6.40
2018-08-03T22:02:07.744Z,6.90
2018-08-03T22:04:09.935Z,7.10
2018-08-03T22:06:12.138Z,7.03
2018-08-03T22:08:14.384Z,6.60
2018-08-03T22:10:16.632Z,6.92
2018-08-03T22:12:18.866Z,6.35
2018-08-03T22:14:21.072Z,6.47
2018-08-03T22:16:23.318Z,7.00
2018-08-03T22:18:25.538Z,6.53
2018-08-03T22:20:27.774Z,6.10
2018-08-03T22:22:30.011Z,6.30
2018-08-03T22:24:32.277Z,6.83
2018-08-03T22:26:34.473Z,6.30
2018-08-03T22:28:36.710Z,6.50
2018-08-03T22:30:38.956Z,5.60
2018-08-03T22:32:41.278Z,5.70
2018-08-03T22:34:43.461Z,6.08
2018-08-03T22:36:45.703Z,6.33
2018-08-03T22:38:47.948Z,5.87
2018-08-03T22:40:50.191Z,6.17
2018-08-03T22:42:52.449Z,6.05
2018-08-03T22:44:54.633Z,6.42
2018-08-03T22:46:56.877Z,5.97
2018-08-03T22:48:59.126Z,5.97
2018-08-03T22:51:01.380Z,5.35
2018-08-03T22:53:03.687Z,6.03
2018-08-03T22:55:05.931Z,6.00
2018-08-03T22:57:08.177Z,5.58
2018-08-03T22:59:10.436Z,5.80
2018-08-03T23:01:12.697Z,5.78
2018-08-03T23:03:14.910Z,5.10
2018-08-03T23:05:17.131Z,5.80
2018-08-03T23:07:19.369Z,5.97
2018-08-03T23:09:21.574Z,5.87
2018-08-03T23:11:23.819Z,5.72
2018-08-03T23:13:26.029Z,6.05
2018-08-03T23:15:28.275Z,5.62
2018-08-03T23:17:30.503Z,5.47
2018-08-03T23:19:32.725Z,4.92
2018-08-03T23:21:34.943Z,5.42
2018-08-03T23:23:37.183Z,4.62
2018-08-03T23:25:39.429Z,5.42
2018-08-03T23:27:41.672Z,4.72
2018-08-03T23:29:43.883Z,5.33
2018-08-03T23:31:46.119Z,5.15
2018-08-03T23:33:48.357Z,3.87
2018-08-03T23:35:50.611Z,4.87
2018-08-03T23:37:52.830Z,4.55
2018-08-03T23:39:55.048Z,4.12
2018-08-03T23:41:57.287Z,4.92
2018-08-03T23:43:59.519Z,4.80
2018-08-03T23:46:01.755Z,4.50
2018-08-03T23:48:03.976Z,4.75
2018-08-03T23:50:06.221Z,4.30
2018-08-03T23:52:08.449Z,4.08
2018-08-03T23:54:10.681Z,3.98
2018-08-03T23:56:12.919Z,5.17
2018-08-03T23:58:15.165Z,4.85
